Time;durP1;ratioP1;P1;durP2;ratioP2;P2;SDS_P1;SDS_P2;PMS_P1;PMS_P2;Temp;Humidity;BMP_temperature;BMP_pressure;BME280_temperature;BME280_humidity;BME280_pressure;Samples;Min_cycle;Max_cycle;Signal;HPM_P1;HPM_P2
2023/12/25 00:02:24;;;;;;;2.38;1.27;;;;;10.60;95663.00;;;;8291947;28;20256;-74
2023/12/25 00:06:28;;;;;;;1.77;1.38;;;;;10.60;95652.00;;;;8303436;28;20776;-75
2023/12/25 00:10:32;;;;;;;1.80;1.10;;;;;10.50;95661.00;;;;8292589;28;20256;-76
2023/12/25 00:14:35;;;;;;;2.33;1.35;;;;;10.40;95654.00;;;;8288403;28;20235;-76
2023/12/25 00:18:38;;;;;;;1.65;1.30;;;;;10.30;95671.00;;;;8293492;28;20567;-75
2023/12/25 00:22:43;;;;;;;3.45;1.38;;;;;10.30;95654.00;;;;8287502;28;20711;-75
2023/12/25 00:26:46;;;;;;;2.92;1.35;;;;;10.20;95676.00;;;;8292784;28;20624;-76
2023/12/25 00:30:49;;;;;;;4.63;1.52;;;;;10.10;95695.00;;;;8288782;28;20235;-76
2023/12/25 00:34:52;;;;;;;2.00;1.50;;;;;10.00;95689.00;;;;8296993;28;20195;-77
2023/12/25 00:38:57;;;;;;;4.60;1.35;;;;;10.00;95689.00;;;;8293342;28;20876;-79
2023/12/25 00:43:00;;;;;;;3.90;1.20;;;;;9.90;95696.00;;;;8286328;28;20217;-78
2023/12/25 00:47:04;;;;;;;4.72;1.45;;;;;9.90;95681.00;;;;8287196;28;20233;-76
2023/12/25 00:51:07;;;;;;;4.90;1.80;;;;;9.80;95691.00;;;;8292416;28;20782;-75
2023/12/25 00:55:11;;;;;;;1.10;1.10;;;;;9.80;95690.00;;;;8293812;28;20670;-74
2023/12/25 00:59:14;;;;;;;6.90;1.67;;;;;9.70;95687.00;;;;8289353;28;20199;-74
2023/12/25 01:03:18;;;;;;;5.90;1.30;;;;;9.70;95684.00;;;;8293211;28;20850;-74
2023/12/25 01:07:21;;;;;;;2.95;1.30;;;;;9.60;95696.00;;;;8286796;28;20476;-74
2023/12/25 01:11:25;;;;;;;3.25;1.33;;;;;9.70;95699.00;;;;8284131;28;20222;-77
2023/12/25 01:15:29;;;;;;;3.42;1.25;;;;;9.70;95696.00;;;;8278379;28;20289;-78
2023/12/25 01:19:32;;;;;;;3.00;1.40;;;;;9.80;95697.00;;;;8288466;28;20320;-77
2023/12/25 01:23:35;;;;;;;1.48;1.38;;;;;9.90;95697.00;;;;8292684;28;20201;-77
2023/12/25 01:27:41;;;;;;;3.13;1.30;;;;;10.00;95694.00;;;;8300065;28;20281;-77
2023/12/25 01:31:44;;;;;;;2.72;1.25;;;;;10.10;95698.00;;;;8291782;28;20280;-77
2023/12/25 01:35:47;;;;;;;3.83;1.10;;;;;10.00;95700.00;;;;8291309;28;20975;-77
2023/12/25 01:39:50;;;;;;;5.95;1.60;;;;;9.90;95690.00;;;;8299322;28;20204;-77
2023/12/25 01:43:55;;;;;;;3.90;1.30;;;;;9.90;95709.00;;;;8293367;28;20316;-78
2023/12/25 01:47:58;;;;;;;2.35;1.30;;;;;9.90;95703.00;;;;8297196;28;20256;-77
2023/12/25 01:52:02;;;;;;;1.40;1.30;;;;;10.00;95720.00;;;;8292157;28;20237;-77
2023/12/25 01:56:06;;;;;;;1.80;1.42;;;;;10.00;95711.00;;;;8296075;28;20241;-77
2023/12/25 02:00:11;;;;;;;1.30;1.20;;;;;10.00;95711.00;;;;8305414;28;20697;-77
2023/12/25 02:04:15;;;;;;;3.78;1.30;;;;;9.90;95709.00;;;;8298968;28;20221;-77
2023/12/25 02:08:18;;;;;;;3.08;1.35;;;;;9.80;95702.00;;;;8296064;28;20345;-77
2023/12/25 02:12:21;;;;;;;1.98;1.30;;;;;9.70;95710.00;;;;8298057;28;20225;-77
2023/12/25 02:16:26;;;;;;;4.47;1.30;;;;;9.80;95710.00;;;;8298505;28;20205;-77
2023/12/25 02:20:29;;;;;;;1.73;1.30;;;;;9.80;95703.00;;;;8297367;28;20208;-77
2023/12/25 02:24:36;;;;;;;4.03;1.52;;;;;9.90;95698.00;;;;8298183;28;20275;-77
2023/12/25 02:28:41;;;;;;;1.33;1.23;;;;;10.00;95707.00;;;;8297622;28;20241;-78
2023/12/25 02:32:44;;;;;;;2.38;1.33;;;;;10.10;95704.00;;;;8295503;28;20285;-77
2023/12/25 02:36:47;;;;;;;2.13;1.40;;;;;10.10;95704.00;;;;8292101;28;20206;-77
2023/12/25 02:40:50;;;;;;;2.97;1.33;;;;;10.20;95721.00;;;;8295609;28;20214;-77
2023/12/25 02:44:56;;;;;;;7.47;1.80;;;;;10.20;95715.00;;;;8293667;28;20220;-77
2023/12/25 02:48:59;;;;;;;8.80;1.30;;;;;10.30;95706.00;;;;8292064;28;20218;-77
2023/12/25 02:53:03;;;;;;;5.25;1.70;;;;;10.30;95716.00;;;;8296253;28;20196;-76
2023/12/25 02:57:07;;;;;;;3.63;1.35;;;;;10.40;95700.00;;;;8295232;28;20341;-76
2023/12/25 03:01:11;;;;;;;2.25;0.98;;;;;10.40;95703.00;;;;8323688;23;20311;-76
2023/12/25 03:05:14;;;;;;;2.03;1.17;;;;;10.40;95705.00;;;;8302983;28;20213;-76
2023/12/25 03:09:18;;;;;;;1.55;1.35;;;;;10.50;95710.00;;;;8296760;28;20970;-76
2023/12/25 03:13:21;;;;;;;2.40;1.23;;;;;10.50;95720.00;;;;8302977;28;20723;-76
2023/12/25 03:17:26;;;;;;;1.25;1.13;;;;;10.50;95721.00;;;;8300822;28;20281;-76
2023/12/25 03:21:29;;;;;;;1.27;1.15;;;;;10.60;95704.00;;;;8301853;28;20204;-76
2023/12/25 03:25:32;;;;;;;1.23;1.13;;;;;10.60;95707.00;;;;8306666;28;20659;-76
2023/12/25 03:29:36;;;;;;;1.30;1.20;;;;;10.50;95694.00;;;;8302709;28;20219;-76
2023/12/25 03:33:40;;;;;;;2.35;1.33;;;;;10.50;95705.00;;;;8294722;28;20349;-76
2023/12/25 03:37:43;;;;;;;1.73;1.38;;;;;10.40;95708.00;;;;8301848;28;20757;-76
2023/12/25 03:41:47;;;;;;;2.22;1.20;;;;;10.00;95716.00;;;;8299807;28;20204;-75
2023/12/25 03:45:50;;;;;;;1.33;1.20;;;;;9.80;95709.00;;;;8304244;28;20333;-76
2023/12/25 03:49:54;;;;;;;1.02;1.02;;;;;9.70;95716.00;;;;8298665;28;21027;-76
2023/12/25 03:53:57;;;;;;;4.22;2.08;;;;;9.60;95705.00;;;;8298236;28;20213;-78
2023/12/25 03:58:01;;;;;;;1.20;1.20;;;;;9.60;95697.00;;;;8309929;28;20289;-78
2023/12/25 04:02:04;;;;;;;1.35;1.25;;;;;9.60;95709.00;;;;8298801;28;20317;-78
2023/12/25 04:06:08;;;;;;;1.42;1.30;;;;;9.60;95716.00;;;;8293980;28;20733;-78
2023/12/25 04:10:12;;;;;;;6.07;1.30;;;;;9.60;95693.00;;;;8296056;28;20235;-79
2023/12/25 04:14:15;;;;;;;1.75;0.98;;;;;9.60;95705.00;;;;8293852;28;20282;-78
2023/12/25 04:18:18;;;;;;;3.72;1.30;;;;;9.70;95711.00;;;;8295230;28;20320;-78
2023/12/25 04:22:22;;;;;;;1.23;1.10;;;;;9.80;95716.00;;;;8290979;28;20208;-78
2023/12/25 04:26:26;;;;;;;3.08;1.33;;;;;9.90;95710.00;;;;8295161;28;20647;-78
2023/12/25 04:30:29;;;;;;;1.17;1.10;;;;;10.00;95724.00;;;;8283137;28;20226;-78
2023/12/25 04:34:32;;;;;;;3.55;1.27;;;;;10.00;95725.00;;;;8296547;28;20670;-77
2023/12/25 04:38:38;;;;;;;1.42;1.30;;;;;9.90;95721.00;;;;8300597;28;20193;-77
2023/12/25 04:42:41;;;;;;;2.35;1.42;;;;;9.70;95711.00;;;;8289894;28;20251;-78
2023/12/25 04:46:44;;;;;;;1.10;1.10;;;;;9.60;95735.00;;;;8292059;28;20237;-77
2023/12/25 04:50:48;;;;;;;1.55;1.30;;;;;9.60;95724.00;;;;8293967;28;20256;-73
2023/12/25 04:54:52;;;;;;;1.40;1.30;;;;;9.40;95723.00;;;;8294406;28;20215;-74
2023/12/25 04:58:55;;;;;;;3.08;1.38;;;;;9.20;95721.00;;;;8289404;28;20294;-72
2023/12/25 05:02:59;;;;;;;3.03;1.30;;;;;9.10;95738.00;;;;8293049;28;21258;-72
2023/12/25 05:07:03;;;;;;;1.67;1.58;;;;;9.10;95723.00;;;;8303001;28;20225;-72
2023/12/25 05:11:07;;;;;;;1.23;1.23;;;;;9.00;95737.00;;;;8296350;28;20225;-72
2023/12/25 05:15:11;;;;;;;1.08;1.08;;;;;8.90;95749.00;;;;8305388;28;20284;-72
2023/12/25 05:19:14;;;;;;;3.78;1.20;;;;;8.90;95752.00;;;;8296048;28;20544;-72
2023/12/25 05:23:17;;;;;;;2.40;1.08;;;;;8.90;95747.00;;;;8300170;28;20705;-72
2023/12/25 05:27:22;;;;;;;1.50;1.15;;;;;8.90;95751.00;;;;8295202;28;20213;-72
2023/12/25 05:31:25;;;;;;;2.55;1.30;;;;;8.80;95756.00;;;;8290229;28;20232;-73
2023/12/25 05:35:28;;;;;;;1.83;1.08;;;;;8.80;95752.00;;;;8301233;28;20628;-72
2023/12/25 05:39:31;;;;;;;1.33;1.08;;;;;8.80;95752.00;;;;8296973;28;20206;-73
2023/12/25 05:43:36;;;;;;;2.30;1.42;;;;;8.70;95758.00;;;;8294910;28;20200;-72
2023/12/25 05:47:39;;;;;;;1.67;1.25;;;;;8.80;95760.00;;;;8293421;28;20213;-73
2023/12/25 05:51:42;;;;;;;1.27;1.20;;;;;8.80;95761.00;;;;8289528;28;20870;-72
2023/12/25 05:55:45;;;;;;;1.48;1.38;;;;;8.70;95755.00;;;;8294657;28;20614;-73
2023/12/25 05:59:50;;;;;;;2.83;1.40;;;;;8.70;95748.00;;;;8291114;28;20213;-77
2023/12/25 06:03:53;;;;;;;1.40;1.30;;;;;8.60;95753.00;;;;8297879;28;20695;-77
2023/12/25 06:07:56;;;;;;;1.70;1.52;;;;;8.60;95750.00;;;;8302040;28;20830;-80
2023/12/25 06:12:00;;;;;;;2.85;1.80;;;;;8.60;95750.00;;;;8295404;28;20222;-79
2023/12/25 06:16:05;;;;;;;1.63;1.50;;;;;8.60;95742.00;;;;8297223;28;20198;-78
2023/12/25 06:20:09;;;;;;;4.97;1.30;;;;;8.50;95752.00;;;;8296878;28;20228;-78
2023/12/25 06:24:21;;;;;;;2.47;1.40;;;;;8.50;95755.00;;;;8295125;28;20204;-79
2023/12/25 06:28:24;;;;;;;1.70;1.23;;;;;8.60;95765.00;;;;8294753;28;20635;-78
2023/12/25 06:32:28;;;;;;;4.80;1.50;;;;;8.60;95766.00;;;;8293819;28;20320;-79
2023/12/25 06:36:32;;;;;;;1.20;1.20;;;;;8.70;95771.00;;;;8297220;28;20202;-79
2023/12/25 06:40:35;;;;;;;2.03;1.38;;;;;8.70;95771.00;;;;8300007;28;20294;-79
2023/12/25 06:44:39;;;;;;;2.85;1.25;;;;;8.70;95763.00;;;;8296957;28;20274;-80
2023/12/25 06:48:44;;;;;;;1.27;1.20;;;;;8.70;95764.00;;;;8295336;28;20233;-79
2023/12/25 06:52:48;;;;;;;2.22;1.30;;;;;8.70;95768.00;;;;8297406;28;20229;-79
2023/12/25 06:56:51;;;;;;;2.95;1.40;;;;;8.80;95775.00;;;;8296618;28;21434;-79
2023/12/25 07:00:54;;;;;;;1.20;1.20;;;;;8.80;95781.00;;;;8294197;28;20546;-79
2023/12/25 07:04:59;;;;;;;1.33;1.25;;;;;8.80;95781.00;;;;8293124;28;20651;-79
2023/12/25 07:09:02;;;;;;;2.58;1.50;;;;;8.90;95771.00;;;;8290233;28;20626;-79
2023/12/25 07:13:05;;;;;;;1.75;1.42;;;;;8.90;95770.00;;;;8289350;28;20247;-80
2023/12/25 07:17:09;;;;;;;1.10;1.10;;;;;8.90;95769.00;;;;8285959;28;20293;-80
2023/12/25 07:21:13;;;;;;;2.20;1.00;;;;;9.00;95784.00;;;;8295971;28;21251;-79
2023/12/25 07:25:16;;;;;;;1.25;1.10;;;;;8.90;95795.00;;;;8292625;28;20215;-79
2023/12/25 07:29:20;;;;;;;1.50;1.40;;;;;9.00;95795.00;;;;8302218;28;20563;-78
2023/12/25 07:33:23;;;;;;;24.38;7.88;;;;;9.10;95790.00;;;;8288316;28;20312;-79
2023/12/25 07:37:29;;;;;;;7.90;7.20;;;;;9.10;95793.00;;;;8291538;28;20225;-76
2023/12/25 07:41:36;;;;;;;1.20;1.20;;;;;9.10;95792.00;;;;8286106;28;20870;-79
2023/12/25 07:45:39;;;;;;;1.75;1.20;;;;;9.10;95798.00;;;;8293581;28;20205;-73
2023/12/25 07:49:42;;;;;;;2.58;2.03;;;;;9.10;95795.00;;;;8296515;28;20240;-73
2023/12/25 07:53:47;;;;;;;1.55;1.45;;;;;9.10;95794.00;;;;8285031;28;20264;-73
2023/12/25 07:57:50;;;;;;;2.70;1.48;;;;;9.10;95791.00;;;;8288833;28;20197;-73
2023/12/25 08:01:54;;;;;;;1.23;1.10;;;;;9.20;95805.00;;;;8288904;28;20252;-73
2023/12/25 08:05:57;;;;;;;1.63;1.02;;;;;9.30;95802.00;;;;8286427;28;20244;-72
2023/12/25 08:10:02;;;;;;;1.00;1.00;;;;;9.40;95813.00;;;;8290496;28;20198;-72
2023/12/25 08:14:05;;;;;;;1.33;1.10;;;;;9.40;95825.00;;;;8291427;28;20632;-72
2023/12/25 08:18:08;;;;;;;2.72;1.33;;;;;9.50;95838.00;;;;8293475;28;20225;-72
2023/12/25 08:22:11;;;;;;;1.02;1.02;;;;;9.50;95833.00;;;;8297098;28;20208;-73
2023/12/25 08:26:16;;;;;;;1.17;1.10;;;;;9.50;95846.00;;;;8292296;28;20688;-73
2023/12/25 08:30:19;;;;;;;1.63;1.10;;;;;9.60;95863.00;;;;8291882;28;20230;-73
2023/12/25 08:34:23;;;;;;;1.30;1.20;;;;;9.40;95861.00;;;;8295989;28;20287;-74
2023/12/25 08:38:27;;;;;;;1.05;1.05;;;;;9.40;95853.00;;;;8303161;28;20202;-73
2023/12/25 08:42:31;;;;;;;1.70;1.60;;;;;9.40;95862.00;;;;8297263;28;20652;-74
2023/12/25 08:46:35;;;;;;;1.15;1.10;;;;;9.40;95863.00;;;;8294508;28;20675;-72
2023/12/25 08:50:38;;;;;;;1.48;1.10;;;;;9.50;95863.00;;;;8296291;28;20335;-73
2023/12/25 08:54:41;;;;;;;1.55;1.10;;;;;9.60;95882.00;;;;8293629;28;20287;-73
2023/12/25 08:58:46;;;;;;;1.55;1.17;;;;;9.50;95886.00;;;;8297594;28;20295;-73
2023/12/25 09:02:49;;;;;;;1.20;1.20;;;;;9.40;95877.00;;;;8296068;28;20240;-74
2023/12/25 09:06:52;;;;;;;1.48;1.38;;;;;9.40;95891.00;;;;8293460;28;20198;-73
2023/12/25 09:10:55;;;;;;;2.25;1.00;;;;;9.40;95891.00;;;;8299493;28;20225;-74
2023/12/25 09:15:00;;;;;;;1.40;1.30;;;;;9.40;95890.00;;;;8301899;28;20289;-74
2023/12/25 09:19:05;;;;;;;1.15;1.08;;;;;9.50;95901.00;;;;8296114;28;20197;-75
2023/12/25 09:23:09;;;;;;;1.20;1.20;;;;;9.60;95892.00;;;;8298732;28;20198;-74
2023/12/25 09:27:12;;;;;;;1.48;1.38;;;;;9.80;95890.00;;;;8303865;28;20203;-74
2023/12/25 09:31:17;;;;;;;1.40;1.35;;;;;9.90;95894.00;;;;8300396;28;20317;-74
2023/12/25 09:35:20;;;;;;;2.22;1.23;;;;;9.90;95899.00;;;;8298099;28;20202;-73
2023/12/25 09:39:23;;;;;;;1.20;1.20;;;;;10.00;95900.00;;;;8293486;28;20900;-74
2023/12/25 09:43:28;;;;;;;2.80;1.48;;;;;10.10;95897.00;;;;8296077;28;20204;-73
2023/12/25 09:47:35;;;;;;;1.85;1.52;;;;;10.10;95889.00;;;;8281022;28;20216;-76
2023/12/25 09:51:43;;;;;;;1.83;1.73;;;;;10.20;95892.00;;;;8288678;28;20725;-75
2023/12/25 09:55:47;;;;;;;1.63;1.50;;;;;10.20;95884.00;;;;8294499;28;20201;-75
2023/12/25 09:59:52;;;;;;;1.48;1.20;;;;;10.30;95885.00;;;;8286939;28;20206;-75
2023/12/25 10:03:59;;;;;;;1.85;1.10;;;;;10.40;95871.00;;;;8286942;28;20237;-75
2023/12/25 10:08:04;;;;;;;1.20;1.20;;;;;10.40;95874.00;;;;8286319;28;20796;-75
2023/12/25 10:12:08;;;;;;;1.23;1.23;;;;;10.40;95864.00;;;;8286340;28;20315;-74
2023/12/25 10:16:12;;;;;;;1.80;1.70;;;;;10.50;95873.00;;;;8284913;28;20210;-74
2023/12/25 10:20:20;;;;;;;1.30;1.30;;;;;10.60;95876.00;;;;8281821;28;20200;-74
2023/12/25 10:24:26;;;;;;;1.23;1.20;;;;;10.60;95872.00;;;;8276961;28;20285;-73
2023/12/25 10:28:31;;;;;;;1.20;1.10;;;;;10.60;95864.00;;;;8278412;28;20272;-74
2023/12/25 10:32:35;;;;;;;1.38;1.27;;;;;10.50;95856.00;;;;8279778;28;21775;-75
2023/12/25 10:36:40;;;;;;;1.30;1.30;;;;;10.60;95872.00;;;;8280842;28;20206;-74
2023/12/25 10:40:43;;;;;;;1.45;1.40;;;;;10.60;95877.00;;;;8281119;28;20212;-73
2023/12/25 10:44:49;;;;;;;163.98;84.65;;;;;10.60;95874.00;;;;8278730;28;20205;-71
2023/12/25 10:48:55;;;;;;;15.82;8.63;;;;;10.70;95877.00;;;;8283472;28;20241;-75
2023/12/25 10:53:03;;;;;;;9.55;7.00;;;;;10.70;95871.00;;;;8282804;28;20220;-75
2023/12/25 10:57:09;;;;;;;5.03;4.22;;;;;10.70;95876.00;;;;8279007;28;20248;-73
2023/12/25 11:01:14;;;;;;;3.70;2.97;;;;;10.70;95859.00;;;;8280312;28;20607;-73
2023/12/25 11:05:17;;;;;;;6.65;6.00;;;;;10.80;95845.00;;;;8280605;28;20262;-73
2023/12/25 11:09:22;;;;;;;6.07;5.65;;;;;11.00;95848.00;;;;8280644;28;20828;-76
2023/12/25 11:13:27;;;;;;;6.75;6.15;;;;;11.10;95844.00;;;;8277669;28;20690;-77
2023/12/25 11:17:31;;;;;;;1.60;1.50;;;;;11.10;95842.00;;;;8282508;28;20205;-76
2023/12/25 11:21:34;;;;;;;3.30;3.08;;;;;11.20;95838.00;;;;8279152;28;20201;-76
2023/12/25 11:25:39;;;;;;;2.50;2.40;;;;;11.30;95837.00;;;;8281676;28;20237;-77
2023/12/25 11:29:43;;;;;;;2.10;2.00;;;;;11.50;95832.00;;;;8279846;28;20198;-77
2023/12/25 11:33:47;;;;;;;2.20;2.10;;;;;11.70;95842.00;;;;8282357;28;20230;-79
2023/12/25 11:37:50;;;;;;;1.20;1.20;;;;;11.70;95837.00;;;;8279672;28;20245;-78
2023/12/25 11:41:56;;;;;;;1.20;1.10;;;;;11.70;95834.00;;;;8280300;28;20205;-75
2023/12/25 11:46:02;;;;;;;1.30;1.30;;;;;11.60;95837.00;;;;8280751;28;20603;-77
2023/12/25 11:50:06;;;;;;;3.00;1.90;;;;;11.70;95833.00;;;;8278465;28;20236;-76
2023/12/25 11:54:10;;;;;;;1.20;1.20;;;;;11.80;95834.00;;;;8272049;28;20226;-76
2023/12/25 11:58:14;;;;;;;2.70;1.27;;;;;11.90;95845.00;;;;8278673;28;20233;-76
2023/12/25 12:02:17;;;;;;;1.85;1.05;;;;;12.10;95836.00;;;;8285723;28;20229;-76
2023/12/25 12:06:21;;;;;;;1.10;1.10;;;;;12.20;95837.00;;;;8279181;28;20202;-77
2023/12/25 12:10:24;;;;;;;0.90;0.90;;;;;12.20;95836.00;;;;8276350;28;20229;-76
2023/12/25 12:14:29;;;;;;;1.48;1.05;;;;;12.10;95833.00;;;;8275124;28;20225;-76
2023/12/25 12:18:32;;;;;;;2.25;0.82;;;;;12.10;95838.00;;;;8278838;28;20277;-75
2023/12/25 12:22:36;;;;;;;1.20;1.20;;;;;12.20;95843.00;;;;8274751;28;20208;-74
2023/12/25 12:26:39;;;;;;;1.00;1.00;;;;;12.30;95848.00;;;;8279059;28;20647;-76
2023/12/25 12:30:44;;;;;;;1.00;1.00;;;;;12.30;95833.00;;;;8276954;28;20216;-74
2023/12/25 12:34:47;;;;;;;1.00;1.00;;;;;12.30;95842.00;;;;8280163;28;20233;-75
2023/12/25 12:38:51;;;;;;;0.93;0.90;;;;;12.30;95838.00;;;;8277570;28;20206;-75
2023/12/25 12:42:54;;;;;;;0.88;0.88;;;;;12.40;95863.00;;;;8276568;28;20202;-79
2023/12/25 12:46:58;;;;;;;1.00;1.00;;;;;12.40;95855.00;;;;8278063;28;20727;-78
2023/12/25 12:51:02;;;;;;;1.55;1.10;;;;;12.40;95850.00;;;;8278950;28;20201;-80
2023/12/25 12:55:06;;;;;;;0.90;0.90;;;;;12.30;95846.00;;;;8276070;28;20308;-79
2023/12/25 12:59:09;;;;;;;1.55;0.82;;;;;12.40;95850.00;;;;8278129;28;20213;-79
2023/12/25 13:03:17;;;;;;;0.80;0.80;;;;;12.50;95851.00;;;;8270106;28;20452;-79
2023/12/25 13:07:20;;;;;;;2.50;1.10;;;;;12.60;95862.00;;;;8277827;28;20227;-79
2023/12/25 13:11:25;;;;;;;1.13;0.88;;;;;12.50;95854.00;;;;8276642;28;20225;-80
2023/12/25 13:15:28;;;;;;;1.20;1.20;;;;;12.50;95857.00;;;;8280090;28;20480;-79
2023/12/25 13:19:37;;;;;;;0.95;0.95;;;;;12.40;95862.00;;;;8279306;28;20208;-79
2023/12/25 13:23:42;;;;;;;4.88;4.57;;;;;12.30;95856.00;;;;8283847;28;20198;-78
2023/12/25 13:27:45;;;;;;;4.13;3.88;;;;;12.30;95870.00;;;;8282785;28;20213;-79
2023/12/25 13:31:48;;;;;;;2.22;2.13;;;;;12.20;95867.00;;;;8283420;28;20210;-79
2023/12/25 13:35:53;;;;;;;97.15;65.07;;;;;12.20;95877.00;;;;8283682;28;20202;-80
2023/12/25 13:40:00;;;;;;;1.80;1.67;;;;;12.30;95860.00;;;;8282384;28;20304;-78
2023/12/25 13:44:03;;;;;;;1.27;1.17;;;;;12.30;95871.00;;;;8287822;28;20194;-80
2023/12/25 13:48:07;;;;;;;1.38;1.27;;;;;12.30;95870.00;;;;8276684;28;20624;-79
2023/12/25 13:52:12;;;;;;;1.60;1.50;;;;;12.40;95884.00;;;;8283018;28;20722;-78
2023/12/25 13:56:15;;;;;;;1.15;1.15;;;;;12.30;95882.00;;;;8284068;28;20226;-78
2023/12/25 14:00:22;;;;;;;3.35;3.08;;;;;12.30;95883.00;;;;8281421;28;20212;-79
2023/12/25 14:04:27;;;;;;;1.45;1.45;;;;;12.30;95881.00;;;;8279881;28;20268;-79
2023/12/25 14:08:32;;;;;;;0.90;0.90;;;;;12.30;95879.00;;;;8280458;28;20305;-75
2023/12/25 14:12:35;;;;;;;0.80;0.80;;;;;12.30;95886.00;;;;8279520;28;20244;-75
2023/12/25 14:16:39;;;;;;;0.90;0.90;;;;;12.30;95878.00;;;;8282617;28;21218;-75
2023/12/25 14:20:42;;;;;;;2.15;0.88;;;;;12.30;95880.00;;;;8283201;28;20980;-75
2023/12/25 14:24:47;;;;;;;0.80;0.80;;;;;12.30;95872.00;;;;8284465;28;20241;-75
2023/12/25 14:28:50;;;;;;;0.90;0.90;;;;;12.30;95876.00;;;;8283748;28;20217;-75
2023/12/25 14:32:53;;;;;;;0.80;0.80;;;;;12.30;95880.00;;;;8282987;28;20226;-76
2023/12/25 14:36:56;;;;;;;0.82;0.82;;;;;12.30;95881.00;;;;8284062;28;20204;-74
2023/12/25 14:41:01;;;;;;;1.95;0.80;;;;;12.30;95887.00;;;;8283254;28;20654;-74
2023/12/25 14:45:05;;;;;;;1.10;1.10;;;;;12.20;95894.00;;;;8281426;28;20205;-77
2023/12/25 14:49:08;;;;;;;1.00;1.00;;;;;12.20;95888.00;;;;8283047;28;20201;-75
2023/12/25 14:53:12;;;;;;;1.20;1.20;;;;;12.20;95891.00;;;;8282185;28;20284;-75
2023/12/25 14:57:17;;;;;;;0.95;0.95;;;;;12.20;95892.00;;;;8282640;28;20202;-75
2023/12/25 15:01:20;;;;;;;1.65;0.80;;;;;12.10;95887.00;;;;8282203;28;20205;-74
2023/12/25 15:05:26;;;;;;;0.80;0.80;;;;;12.10;95895.00;;;;8281071;28;20289;-75
2023/12/25 15:09:30;;;;;;;1.00;1.00;;;;;12.10;95897.00;;;;8283184;28;20217;-75
2023/12/25 15:13:35;;;;;;;0.95;0.95;;;;;12.10;95894.00;;;;8281950;28;20309;-75
2023/12/25 15:17:38;;;;;;;1.10;1.10;;;;;12.10;95898.00;;;;8282898;28;20229;-75
2023/12/25 15:21:42;;;;;;;1.08;1.00;;;;;12.00;95901.00;;;;8281311;28;20293;-74
2023/12/25 15:25:46;;;;;;;1.10;1.00;;;;;12.00;95907.00;;;;8275666;28;20198;-75
2023/12/25 15:29:50;;;;;;;6.97;1.70;;;;;12.00;95911.00;;;;8274250;28;20317;-76
2023/12/25 15:33:53;;;;;;;2.90;1.30;;;;;12.00;95905.00;;;;8279402;28;20324;-76
2023/12/25 15:37:57;;;;;;;1.10;1.10;;;;;12.00;95909.00;;;;8279804;28;20203;-76
2023/12/25 15:42:00;;;;;;;1.20;1.20;;;;;12.00;95916.00;;;;8276456;28;20248;-74
2023/12/25 15:46:05;;;;;;;1.58;1.10;;;;;11.90;95917.00;;;;8277346;28;20611;-74
2023/12/25 15:50:09;;;;;;;1.15;1.15;;;;;11.90;95926.00;;;;8278488;28;20217;-74
2023/12/25 15:54:13;;;;;;;1.75;1.25;;;;;11.90;95922.00;;;;8278183;28;20316;-75
2023/12/25 15:58:16;;;;;;;1.73;1.13;;;;;11.90;95929.00;;;;8280118;28;20202;-74
2023/12/25 16:02:21;;;;;;;2.78;2.50;;;;;11.90;95932.00;;;;8279308;28;20238;-76
2023/12/25 16:06:24;;;;;;;1.63;1.52;;;;;11.80;95934.00;;;;8281028;28;20221;-74
2023/12/25 16:10:28;;;;;;;1.40;1.40;;;;;11.80;95947.00;;;;8275475;28;20293;-75
2023/12/25 16:14:31;;;;;;;1.92;1.83;;;;;11.80;95944.00;;;;8278489;28;20238;-74
2023/12/25 16:18:35;;;;;;;1.75;1.38;;;;;11.80;95950.00;;;;8276946;28;20811;-74
2023/12/25 16:22:39;;;;;;;4.97;3.30;;;;;11.80;95950.00;;;;8278574;28;20324;-72
2023/12/25 16:26:42;;;;;;;1.30;1.20;;;;;11.70;95956.00;;;;8271503;28;20206;-74
2023/12/25 16:30:45;;;;;;;3.88;3.58;;;;;11.80;95952.00;;;;8284291;28;20870;-73
2023/12/25 16:34:50;;;;;;;2.17;1.80;;;;;11.80;95953.00;;;;8293054;28;20325;-74
2023/12/25 16:38:54;;;;;;;1.23;1.13;;;;;11.80;95966.00;;;;8290465;28;20220;-74
2023/12/25 16:42:57;;;;;;;1.25;1.25;;;;;11.70;95962.00;;;;8296363;28;20235;-75
2023/12/25 16:47:01;;;;;;;1.02;1.02;;;;;11.70;95973.00;;;;8291234;28;20191;-74
2023/12/25 16:51:05;;;;;;;1.10;1.10;;;;;11.80;95970.00;;;;8281281;28;20213;-73
2023/12/25 16:55:09;;;;;;;1.50;1.30;;;;;11.80;95974.00;;;;8273611;28;20972;-74
2023/12/25 16:59:13;;;;;;;1.00;1.00;;;;;11.80;95984.00;;;;8284376;28;20228;-73
2023/12/25 17:03:16;;;;;;;1.13;1.05;;;;;11.80;95979.00;;;;8278208;28;20316;-74
2023/12/25 17:07:21;;;;;;;0.80;0.80;;;;;11.80;95981.00;;;;8290734;28;20658;-73
2023/12/25 17:11:24;;;;;;;1.20;1.00;;;;;11.80;95983.00;;;;8283798;28;20275;-74
2023/12/25 17:15:27;;;;;;;1.00;1.00;;;;;11.80;95983.00;;;;8285467;28;20236;-75
2023/12/25 17:19:30;;;;;;;1.10;1.10;;;;;11.80;95988.00;;;;8282625;28;20233;-74
2023/12/25 17:23:36;;;;;;;1.00;1.00;;;;;11.80;95983.00;;;;8284356;28;20285;-74
2023/12/25 17:27:41;;;;;;;1.60;1.50;;;;;11.80;95979.00;;;;8282953;28;20206;-74
2023/12/25 17:31:44;;;;;;;2.35;2.15;;;;;11.80;95984.00;;;;8284104;28;20191;-74
2023/12/25 17:35:48;;;;;;;3.08;2.38;;;;;11.80;95976.00;;;;8282838;28;20319;-75
2023/12/25 17:39:54;;;;;;;4.40;2.10;;;;;11.70;95978.00;;;;8286856;28;20284;-74
2023/12/25 17:44:00;;;;;;;3.42;2.20;;;;;11.70;95983.00;;;;8280743;28;20229;-74
2023/12/25 17:48:04;;;;;;;2.05;1.95;;;;;11.70;95992.00;;;;8276456;28;20194;-73
2023/12/25 17:52:07;;;;;;;3.55;1.80;;;;;11.70;95990.00;;;;8282356;28;20475;-74
2023/12/25 17:56:12;;;;;;;4.30;2.20;;;;;11.70;95996.00;;;;8286751;28;20234;-74
2023/12/25 18:00:16;;;;;;;1.33;1.30;;;;;11.70;96004.00;;;;8285688;28;20205;-74
2023/12/25 18:04:21;;;;;;;2.58;1.50;;;;;11.70;96007.00;;;;8283224;28;20225;-75
2023/12/25 18:08:26;;;;;;;1.58;1.48;;;;;11.70;96016.00;;;;8281913;28;20261;-74
2023/12/25 18:12:31;;;;;;;1.50;1.40;;;;;11.70;96017.00;;;;8279301;28;20209;-73
2023/12/25 18:16:34;;;;;;;1.10;1.10;;;;;11.70;96023.00;;;;8284154;28;20222;-74
2023/12/25 18:20:38;;;;;;;1.75;1.60;;;;;11.70;96030.00;;;;8278305;28;20796;-75
2023/12/25 18:24:41;;;;;;;1.67;1.58;;;;;11.70;96011.00;;;;8280269;28;20203;-75
2023/12/25 18:28:46;;;;;;;2.05;1.83;;;;;11.60;96008.00;;;;8278918;28;20648;-75
2023/12/25 18:32:49;;;;;;;2.28;1.65;;;;;11.70;96011.00;;;;8277924;28;20441;-74
2023/12/25 18:36:52;;;;;;;1.83;1.65;;;;;11.60;96012.00;;;;8278123;28;20336;-74
2023/12/25 18:40:56;;;;;;;1.67;1.58;;;;;11.60;96010.00;;;;8281240;28;20209;-74
2023/12/25 18:45:00;;;;;;;2.17;1.80;;;;;11.50;96011.00;;;;8282621;28;20243;-76
2023/12/25 18:49:04;;;;;;;1.80;1.70;;;;;11.50;96007.00;;;;8282238;28;20275;-73
2023/12/25 18:53:07;;;;;;;1.77;1.67;;;;;11.50;96010.00;;;;8282223;28;20687;-74
2023/12/25 18:57:10;;;;;;;2.58;1.58;;;;;11.50;96004.00;;;;8282963;28;20336;-74
2023/12/25 19:01:15;;;;;;;1.40;1.30;;;;;11.50;96007.00;;;;8275430;28;20210;-73
2023/12/25 19:05:18;;;;;;;1.95;1.50;;;;;11.50;96012.00;;;;8278742;28;20590;-73
2023/12/25 19:09:22;;;;;;;1.42;1.33;;;;;11.50;96013.00;;;;8280743;28;20202;-74
2023/12/25 19:13:25;;;;;;;2.22;1.52;;;;;11.50;96008.00;;;;8279372;28;20298;-73
2023/12/25 19:17:31;;;;;;;2.35;1.90;;;;;11.50;96002.00;;;;8280820;28;20244;-74
2023/12/25 19:21:34;;;;;;;2.20;1.60;;;;;11.50;95999.00;;;;8277977;28;20194;-74
2023/12/25 19:25:43;;;;;;;1.75;1.65;;;;;11.50;96003.00;;;;8274658;28;20206;-73
2023/12/25 19:29:46;;;;;;;2.78;1.50;;;;;11.50;95999.00;;;;8282758;28;20376;-74
2023/12/25 19:33:51;;;;;;;1.45;1.35;;;;;11.50;96004.00;;;;8280018;28;20198;-73
2023/12/25 19:37:54;;;;;;;1.50;1.40;;;;;11.40;96001.00;;;;8280378;28;20241;-74
2023/12/25 19:41:58;;;;;;;1.60;1.50;;;;;11.40;96009.00;;;;8283670;28;20194;-74
2023/12/25 19:46:01;;;;;;;1.90;1.50;;;;;11.40;96002.00;;;;8280208;28;20927;-74
2023/12/25 19:50:06;;;;;;;3.13;1.80;;;;;11.40;95997.00;;;;8277871;28;20321;-75
2023/12/25 19:54:09;;;;;;;1.60;1.50;;;;;11.40;96006.00;;;;8285476;28;20240;-73
2023/12/25 19:58:13;;;;;;;4.05;1.80;;;;;11.30;95998.00;;;;8277790;28;20304;-74
2023/12/25 20:02:16;;;;;;;6.07;1.73;;;;;11.30;95997.00;;;;8272259;28;20253;-74
2023/12/25 20:06:21;;;;;;;2.05;1.70;;;;;11.30;95998.00;;;;8284056;28;20291;-73
2023/12/25 20:10:24;;;;;;;1.88;1.75;;;;;11.20;95985.00;;;;8292385;28;20901;-73
2023/12/25 20:14:28;;;;;;;1.90;1.60;;;;;11.20;95981.00;;;;8279724;28;20206;-72
2023/12/25 20:18:31;;;;;;;239.02;133.45;;;;;11.10;95985.00;;;;8275363;28;20230;-73
2023/12/25 20:22:36;;;;;;;97.97;51.08;;;;;11.10;95978.00;;;;8278463;28;20202;-73
2023/12/25 20:26:39;;;;;;;43.13;27.13;;;;;11.10;95986.00;;;;8275650;28;20201;-73